Terminal Aerodrome Forecast
Issued by NWS Quad Cities IA IL

Home | Current Version | Previous Version | Text Only | Print | Product List | Glossary On
Versions: 1 2 3 4 5 6 7 8 9 10 11 12 13
000
FTUS43 KDVN 220520
TAFMLI
TAF
KMLI 220520Z 2206/2306 16008KT P6SM FEW120
     FM221100 16005KT 6SM BR FEW250
     FM221600 18011KT P6SM FEW250
     FM230000 16006KT P6SM SKC=

USA.gov is the U.S. government's official web portal to all federal, state and local government web resources and services.